sensor_id;sensor_type;location;lat;lon;timestamp;P1;durP1;ratioP1;P2;durP2;ratioP2
48550;SDS011;34397;51.176;6.738;2022-08-04T00:01:31;6.57;;;2.05;;
48550;SDS011;34397;51.176;6.738;2022-08-04T00:04:11;7.20;;;1.90;;
48550;SDS011;34397;51.176;6.738;2022-08-04T00:06:49;6.63;;;2.13;;
48550;SDS011;34397;51.176;6.738;2022-08-04T00:09:36;5.85;;;2.00;;
48550;SDS011;34397;51.176;6.738;2022-08-04T00:12:15;4.78;;;1.75;;
48550;SDS011;34397;51.176;6.738;2022-08-04T00:14:49;4.63;;;1.98;;
48550;SDS011;34397;51.176;6.738;2022-08-04T00:17:29;5.82;;;1.80;;
48550;SDS011;34397;51.176;6.738;2022-08-04T00:20:03;4.25;;;1.60;;
48550;SDS011;34397;51.176;6.738;2022-08-04T00:22:37;4.75;;;1.63;;
48550;SDS011;34397;51.176;6.738;2022-08-04T00:25:14;5.40;;;2.00;;
48550;SDS011;34397;51.176;6.738;2022-08-04T00:27:46;4.38;;;1.77;;
48550;SDS011;34397;51.176;6.738;2022-08-04T00:30:19;5.70;;;2.60;;
48550;SDS011;34397;51.176;6.738;2022-08-04T00:32:51;4.33;;;1.90;;
48550;SDS011;34397;51.176;6.738;2022-08-04T00:35:23;6.20;;;2.30;;
48550;SDS011;34397;51.176;6.738;2022-08-04T00:37:55;5.72;;;2.10;;
48550;SDS011;34397;51.176;6.738;2022-08-04T00:43:11;7.28;;;1.88;;
48550;SDS011;34397;51.176;6.738;2022-08-04T00:46:02;7.10;;;1.88;;
48550;SDS011;34397;51.176;6.738;2022-08-04T00:49:07;4.90;;;1.80;;
48550;SDS011;34397;51.176;6.738;2022-08-04T00:52:00;5.75;;;1.95;;
48550;SDS011;34397;51.176;6.738;2022-08-04T00:54:53;6.20;;;1.88;;
48550;SDS011;34397;51.176;6.738;2022-08-04T00:57:58;7.18;;;2.22;;
48550;SDS011;34397;51.176;6.738;2022-08-04T01:01:02;5.22;;;1.77;;
48550;SDS011;34397;51.176;6.738;2022-08-04T01:03:43;5.55;;;1.73;;
48550;SDS011;34397;51.176;6.738;2022-08-04T01:06:26;7.13;;;2.05;;
48550;SDS011;34397;51.176;6.738;2022-08-04T01:09:21;8.20;;;1.80;;
48550;SDS011;34397;51.176;6.738;2022-08-04T01:12:06;6.32;;;1.73;;
48550;SDS011;34397;51.176;6.738;2022-08-04T01:14:58;5.20;;;1.98;;
48550;SDS011;34397;51.176;6.738;2022-08-04T01:20:31;3.95;;;1.90;;
48550;SDS011;34397;51.176;6.738;2022-08-04T01:26:38;6.50;;;1.80;;
48550;SDS011;34397;51.176;6.738;2022-08-04T01:29:22;7.45;;;2.35;;
48550;SDS011;34397;51.176;6.738;2022-08-04T01:32:01;3.38;;;1.48;;
48550;SDS011;34397;51.176;6.738;2022-08-04T01:34:35;5.47;;;1.98;;
48550;SDS011;34397;51.176;6.738;2022-08-04T01:37:15;5.50;;;1.60;;
48550;SDS011;34397;51.176;6.738;2022-08-04T01:39:59;6.28;;;1.75;;
48550;SDS011;34397;51.176;6.738;2022-08-04T01:42:35;7.00;;;1.90;;
48550;SDS011;34397;51.176;6.738;2022-08-04T01:45:11;5.20;;;2.05;;
48550;SDS011;34397;51.176;6.738;2022-08-04T01:47:48;6.55;;;1.83;;
48550;SDS011;34397;51.176;6.738;2022-08-04T01:50:22;6.10;;;2.00;;
48550;SDS011;34397;51.176;6.738;2022-08-04T01:52:56;5.80;;;2.30;;
48550;SDS011;34397;51.176;6.738;2022-08-04T01:55:29;5.75;;;2.00;;
48550;SDS011;34397;51.176;6.738;2022-08-04T01:58:02;3.80;;;1.75;;
48550;SDS011;34397;51.176;6.738;2022-08-04T02:00:37;6.07;;;2.03;;
48550;SDS011;34397;51.176;6.738;2022-08-04T02:03:16;8.98;;;1.80;;
48550;SDS011;34397;51.176;6.738;2022-08-04T02:05:49;7.32;;;2.33;;
48550;SDS011;34397;51.176;6.738;2022-08-04T02:08:27;5.43;;;1.92;;
48550;SDS011;34397;51.176;6.738;2022-08-04T02:11:15;6.15;;;2.15;;
48550;SDS011;34397;51.176;6.738;2022-08-04T02:13:53;4.57;;;1.58;;
48550;SDS011;34397;51.176;6.738;2022-08-04T02:16:36;6.28;;;1.90;;
48550;SDS011;34397;51.176;6.738;2022-08-04T02:19:15;6.70;;;2.40;;
48550;SDS011;34397;51.176;6.738;2022-08-04T02:22:00;4.93;;;1.77;;
48550;SDS011;34397;51.176;6.738;2022-08-04T02:24:45;5.68;;;2.05;;
48550;SDS011;34397;51.176;6.738;2022-08-04T02:27:21;5.00;;;2.20;;
48550;SDS011;34397;51.176;6.738;2022-08-04T02:30:01;5.15;;;1.77;;
48550;SDS011;34397;51.176;6.738;2022-08-04T02:32:37;6.47;;;2.20;;
48550;SDS011;34397;51.176;6.738;2022-08-04T02:35:13;6.93;;;1.85;;
48550;SDS011;34397;51.176;6.738;2022-08-04T02:37:51;6.45;;;1.88;;
48550;SDS011;34397;51.176;6.738;2022-08-04T02:40:32;5.03;;;2.15;;
48550;SDS011;34397;51.176;6.738;2022-08-04T02:43:05;9.85;;;2.13;;
48550;SDS011;34397;51.176;6.738;2022-08-04T02:45:40;7.13;;;1.83;;
48550;SDS011;34397;51.176;6.738;2022-08-04T02:48:14;7.10;;;1.95;;
48550;SDS011;34397;51.176;6.738;2022-08-04T02:50:48;6.20;;;1.90;;
48550;SDS011;34397;51.176;6.738;2022-08-04T02:53:23;7.80;;;1.88;;
48550;SDS011;34397;51.176;6.738;2022-08-04T02:55:57;5.95;;;2.03;;
48550;SDS011;34397;51.176;6.738;2022-08-04T02:58:31;7.97;;;2.25;;
48550;SDS011;34397;51.176;6.738;2022-08-04T03:01:05;7.65;;;1.98;;
48550;SDS011;34397;51.176;6.738;2022-08-04T03:03:39;5.88;;;2.05;;
48550;SDS011;34397;51.176;6.738;2022-08-04T03:06:27;5.38;;;2.05;;
48550;SDS011;34397;51.176;6.738;2022-08-04T03:09:42;6.32;;;2.33;;
48550;SDS011;34397;51.176;6.738;2022-08-04T03:12:52;6.70;;;2.10;;
48550;SDS011;34397;51.176;6.738;2022-08-04T03:16:19;6.90;;;2.17;;
48550;SDS011;34397;51.176;6.738;2022-08-04T03:19:13;7.18;;;2.42;;
48550;SDS011;34397;51.176;6.738;2022-08-04T03:22:27;5.90;;;2.13;;
48550;SDS011;34397;51.176;6.738;2022-08-04T03:25:48;7.03;;;2.28;;
48550;SDS011;34397;51.176;6.738;2022-08-04T03:28:54;8.73;;;2.63;;
48550;SDS011;34397;51.176;6.738;2022-08-04T03:35:54;9.00;;;2.85;;
48550;SDS011;34397;51.176;6.738;2022-08-04T03:38:58;6.07;;;2.17;;
48550;SDS011;34397;51.176;6.738;2022-08-04T03:41:53;4.97;;;2.28;;
48550;SDS011;34397;51.176;6.738;2022-08-04T03:45:03;7.20;;;2.33;;
48550;SDS011;34397;51.176;6.738;2022-08-04T03:48:20;5.35;;;2.30;;
48550;SDS011;34397;51.176;6.738;2022-08-04T03:54:37;6.57;;;2.10;;
48550;SDS011;34397;51.176;6.738;2022-08-04T04:01:01;6.80;;;2.13;;
48550;SDS011;34397;51.176;6.738;2022-08-04T04:04:07;7.38;;;2.40;;
48550;SDS011;34397;51.176;6.738;2022-08-04T04:10:24;8.57;;;2.40;;
48550;SDS011;34397;51.176;6.738;2022-08-04T04:16:26;7.53;;;2.42;;
48550;SDS011;34397;51.176;6.738;2022-08-04T04:19:21;7.82;;;2.42;;
48550;SDS011;34397;51.176;6.738;2022-08-04T04:22:07;6.13;;;2.65;;
48550;SDS011;34397;51.176;6.738;2022-08-04T04:24:58;5.15;;;2.20;;
48550;SDS011;34397;51.176;6.738;2022-08-04T04:27:39;7.45;;;2.58;;
48550;SDS011;34397;51.176;6.738;2022-08-04T04:30:24;6.57;;;2.40;;
48550;SDS011;34397;51.176;6.738;2022-08-04T04:33:13;11.02;;;2.67;;
48550;SDS011;34397;51.176;6.738;2022-08-04T04:36:02;6.50;;;2.67;;
48550;SDS011;34397;51.176;6.738;2022-08-04T04:39:02;8.52;;;2.85;;
48550;SDS011;34397;51.176;6.738;2022-08-04T04:41:52;7.30;;;3.03;;
48550;SDS011;34397;51.176;6.738;2022-08-04T04:44:42;7.93;;;2.80;;
48550;SDS011;34397;51.176;6.738;2022-08-04T04:47:46;7.70;;;2.38;;
48550;SDS011;34397;51.176;6.738;2022-08-04T04:50:30;6.47;;;3.05;;
48550;SDS011;34397;51.176;6.738;2022-08-04T04:53:10;8.18;;;3.05;;
48550;SDS011;34397;51.176;6.738;2022-08-04T04:55:52;7.38;;;3.25;;
48550;SDS011;34397;51.176;6.738;2022-08-04T04:58:35;7.70;;;3.65;;
48550;SDS011;34397;51.176;6.738;2022-08-04T05:01:18;7.43;;;2.83;;
48550;SDS011;34397;51.176;6.738;2022-08-04T05:04:24;7.85;;;3.42;;
48550;SDS011;34397;51.176;6.738;2022-08-04T05:07:19;6.28;;;2.95;;
48550;SDS011;34397;51.176;6.738;2022-08-04T05:10:38;6.72;;;3.63;;
48550;SDS011;34397;51.176;6.738;2022-08-04T05:13:30;6.72;;;3.42;;
48550;SDS011;34397;51.176;6.738;2022-08-04T05:16:08;7.18;;;3.58;;
48550;SDS011;34397;51.176;6.738;2022-08-04T05:18:48;7.85;;;3.20;;
48550;SDS011;34397;51.176;6.738;2022-08-04T05:21:36;4.63;;;2.70;;
48550;SDS011;34397;51.176;6.738;2022-08-04T05:24:13;7.30;;;2.75;;
48550;SDS011;34397;51.176;6.738;2022-08-04T05:26:52;5.60;;;3.10;;
48550;SDS011;34397;51.176;6.738;2022-08-04T05:29:28;6.10;;;3.17;;
48550;SDS011;34397;51.176;6.738;2022-08-04T05:32:07;5.43;;;3.08;;
48550;SDS011;34397;51.176;6.738;2022-08-04T05:34:44;5.65;;;3.03;;
48550;SDS011;34397;51.176;6.738;2022-08-04T05:37:24;7.43;;;2.80;;
48550;SDS011;34397;51.176;6.738;2022-08-04T05:39:59;6.05;;;2.92;;
48550;SDS011;34397;51.176;6.738;2022-08-04T05:42:37;6.13;;;2.88;;
48550;SDS011;34397;51.176;6.738;2022-08-04T05:45:11;6.88;;;3.20;;
48550;SDS011;34397;51.176;6.738;2022-08-04T05:47:44;7.25;;;3.10;;
48550;SDS011;34397;51.176;6.738;2022-08-04T05:50:18;7.68;;;3.17;;
48550;SDS011;34397;51.176;6.738;2022-08-04T05:52:50;6.07;;;2.65;;
48550;SDS011;34397;51.176;6.738;2022-08-04T05:55:23;6.05;;;3.17;;
48550;SDS011;34397;51.176;6.738;2022-08-04T05:57:57;5.63;;;2.92;;
48550;SDS011;34397;51.176;6.738;2022-08-04T06:00:30;7.75;;;2.90;;
48550;SDS011;34397;51.176;6.738;2022-08-04T06:03:06;5.68;;;3.03;;
48550;SDS011;34397;51.176;6.738;2022-08-04T06:05:40;5.85;;;2.92;;
48550;SDS011;34397;51.176;6.738;2022-08-04T06:08:13;6.30;;;3.25;;
48550;SDS011;34397;51.176;6.738;2022-08-04T06:10:45;5.70;;;3.40;;
48550;SDS011;34397;51.176;6.738;2022-08-04T06:13:19;7.32;;;3.47;;
48550;SDS011;34397;51.176;6.738;2022-08-04T06:15:59;7.82;;;3.35;;
48550;SDS011;34397;51.176;6.738;2022-08-04T06:18:34;5.70;;;3.17;;
48550;SDS011;34397;51.176;6.738;2022-08-04T06:21:07;7.25;;;3.65;;
48550;SDS011;34397;51.176;6.738;2022-08-04T06:23:41;7.18;;;3.22;;
48550;SDS011;34397;51.176;6.738;2022-08-04T06:26:15;8.88;;;3.50;;
48550;SDS011;34397;51.176;6.738;2022-08-04T06:28:49;12.00;;;3.53;;
48550;SDS011;34397;51.176;6.738;2022-08-04T06:31:22;8.50;;;3.97;;
48550;SDS011;34397;51.176;6.738;2022-08-04T06:34:13;9.27;;;4.00;;
48550;SDS011;34397;51.176;6.738;2022-08-04T06:36:46;10.30;;;4.18;;
48550;SDS011;34397;51.176;6.738;2022-08-04T06:39:18;9.60;;;4.40;;
48550;SDS011;34397;51.176;6.738;2022-08-04T06:41:52;8.30;;;3.53;;
48550;SDS011;34397;51.176;6.738;2022-08-04T06:44:25;7.68;;;4.10;;
48550;SDS011;34397;51.176;6.738;2022-08-04T06:46:59;7.68;;;4.25;;
48550;SDS011;34397;51.176;6.738;2022-08-04T06:49:33;7.68;;;4.32;;
48550;SDS011;34397;51.176;6.738;2022-08-04T06:52:07;8.40;;;3.83;;
48550;SDS011;34397;51.176;6.738;2022-08-04T06:54:40;10.85;;;4.15;;
48550;SDS011;34397;51.176;6.738;2022-08-04T06:57:12;9.87;;;4.37;;
48550;SDS011;34397;51.176;6.738;2022-08-04T06:59:49;12.25;;;4.57;;
48550;SDS011;34397;51.176;6.738;2022-08-04T07:02:26;8.50;;;4.68;;
48550;SDS011;34397;51.176;6.738;2022-08-04T07:05:04;9.43;;;4.47;;
48550;SDS011;34397;51.176;6.738;2022-08-04T07:07:37;11.25;;;3.88;;
48550;SDS011;34397;51.176;6.738;2022-08-04T07:10:11;7.40;;;4.03;;
48550;SDS011;34397;51.176;6.738;2022-08-04T07:12:44;9.27;;;4.40;;
48550;SDS011;34397;51.176;6.738;2022-08-04T07:15:16;9.90;;;4.10;;
48550;SDS011;34397;51.176;6.738;2022-08-04T07:17:48;6.72;;;4.05;;
48550;SDS011;34397;51.176;6.738;2022-08-04T07:20:23;6.55;;;3.35;;
48550;SDS011;34397;51.176;6.738;2022-08-04T07:22:56;9.27;;;4.10;;
48550;SDS011;34397;51.176;6.738;2022-08-04T07:25:29;8.07;;;3.75;;
48550;SDS011;34397;51.176;6.738;2022-08-04T07:28:01;8.18;;;3.97;;
48550;SDS011;34397;51.176;6.738;2022-08-04T07:30:34;8.43;;;3.78;;
48550;SDS011;34397;51.176;6.738;2022-08-04T07:33:08;8.15;;;4.00;;
48550;SDS011;34397;51.176;6.738;2022-08-04T07:35:42;8.60;;;4.07;;
48550;SDS011;34397;51.176;6.738;2022-08-04T07:38:15;7.05;;;3.97;;
48550;SDS011;34397;51.176;6.738;2022-08-04T07:40:47;8.27;;;3.72;;
48550;SDS011;34397;51.176;6.738;2022-08-04T07:43:19;6.63;;;3.90;;
48550;SDS011;34397;51.176;6.738;2022-08-04T07:45:51;8.68;;;3.70;;
48550;SDS011;34397;51.176;6.738;2022-08-04T07:48:23;6.97;;;3.85;;
48550;SDS011;34397;51.176;6.738;2022-08-04T07:50:57;7.33;;;3.93;;
48550;SDS011;34397;51.176;6.738;2022-08-04T07:53:29;7.55;;;3.60;;
48550;SDS011;34397;51.176;6.738;2022-08-04T07:56:02;6.82;;;3.53;;
48550;SDS011;34397;51.176;6.738;2022-08-04T07:58:34;6.93;;;3.58;;
48550;SDS011;34397;51.176;6.738;2022-08-04T08:01:06;6.17;;;3.63;;
48550;SDS011;34397;51.176;6.738;2022-08-04T08:03:39;7.55;;;3.33;;
48550;SDS011;34397;51.176;6.738;2022-08-04T08:06:13;6.22;;;3.42;;
48550;SDS011;34397;51.176;6.738;2022-08-04T08:08:45;6.18;;;3.13;;
48550;SDS011;34397;51.176;6.738;2022-08-04T08:11:17;5.90;;;3.37;;
48550;SDS011;34397;51.176;6.738;2022-08-04T08:13:49;8.65;;;3.50;;
48550;SDS011;34397;51.176;6.738;2022-08-04T08:16:21;8.02;;;3.33;;
48550;SDS011;34397;51.176;6.738;2022-08-04T08:18:53;7.78;;;3.15;;
48550;SDS011;34397;51.176;6.738;2022-08-04T08:21:27;7.30;;;3.35;;
48550;SDS011;34397;51.176;6.738;2022-08-04T08:23:59;7.72;;;3.30;;
48550;SDS011;34397;51.176;6.738;2022-08-04T08:26:31;6.85;;;3.15;;
48550;SDS011;34397;51.176;6.738;2022-08-04T08:29:05;4.78;;;2.88;;
48550;SDS011;34397;51.176;6.738;2022-08-04T08:31:41;4.43;;;2.97;;
48550;SDS011;34397;51.176;6.738;2022-08-04T08:34:21;6.05;;;3.08;;
48550;SDS011;34397;51.176;6.738;2022-08-04T08:37:00;9.00;;;3.03;;
48550;SDS011;34397;51.176;6.738;2022-08-04T08:39:58;5.30;;;3.00;;
48550;SDS011;34397;51.176;6.738;2022-08-04T08:46:30;4.43;;;2.60;;
48550;SDS011;34397;51.176;6.738;2022-08-04T08:53:12;5.88;;;2.85;;
48550;SDS011;34397;51.176;6.738;2022-08-04T08:56:10;5.25;;;2.60;;
48550;SDS011;34397;51.176;6.738;2022-08-04T09:02:26;8.57;;;2.85;;
48550;SDS011;34397;51.176;6.738;2022-08-04T09:06:07;5.38;;;2.70;;
48550;SDS011;34397;51.176;6.738;2022-08-04T09:09:17;8.85;;;2.75;;
48550;SDS011;34397;51.176;6.738;2022-08-04T09:12:08;6.75;;;2.78;;
48550;SDS011;34397;51.176;6.738;2022-08-04T09:14:49;6.90;;;3.15;;
48550;SDS011;34397;51.176;6.738;2022-08-04T09:17:32;5.93;;;2.55;;
48550;SDS011;34397;51.176;6.738;2022-08-04T09:20:12;7.80;;;2.80;;
48550;SDS011;34397;51.176;6.738;2022-08-04T09:22:53;5.22;;;2.47;;
48550;SDS011;34397;51.176;6.738;2022-08-04T09:25:40;6.70;;;3.10;;
48550;SDS011;34397;51.176;6.738;2022-08-04T09:28:18;4.18;;;2.35;;
48550;SDS011;34397;51.176;6.738;2022-08-04T09:30:56;4.88;;;2.30;;
48550;SDS011;34397;51.176;6.738;2022-08-04T09:33:39;5.15;;;2.50;;
48550;SDS011;34397;51.176;6.738;2022-08-04T09:36:23;4.40;;;2.40;;
48550;SDS011;34397;51.176;6.738;2022-08-04T09:39:05;5.72;;;2.30;;
48550;SDS011;34397;51.176;6.738;2022-08-04T09:41:55;5.35;;;2.30;;
48550;SDS011;34397;51.176;6.738;2022-08-04T09:44:39;6.40;;;3.50;;
48550;SDS011;34397;51.176;6.738;2022-08-04T09:47:25;7.78;;;3.22;;
48550;SDS011;34397;51.176;6.738;2022-08-04T09:50:10;10.43;;;4.27;;
48550;SDS011;34397;51.176;6.738;2022-08-04T09:53:05;8.73;;;4.22;;
48550;SDS011;34397;51.176;6.738;2022-08-04T09:56:02;4.72;;;2.42;;
48550;SDS011;34397;51.176;6.738;2022-08-04T09:58:45;7.25;;;2.75;;
48550;SDS011;34397;51.176;6.738;2022-08-04T10:01:27;8.02;;;3.10;;
48550;SDS011;34397;51.176;6.738;2022-08-04T10:04:01;7.35;;;4.05;;
48550;SDS011;34397;51.176;6.738;2022-08-04T10:06:53;7.15;;;2.58;;
48550;SDS011;34397;51.176;6.738;2022-08-04T10:10:09;5.10;;;2.20;;
48550;SDS011;34397;51.176;6.738;2022-08-04T10:13:00;6.22;;;2.20;;
48550;SDS011;34397;51.176;6.738;2022-08-04T10:15:59;5.55;;;2.50;;
48550;SDS011;34397;51.176;6.738;2022-08-04T10:18:58;4.57;;;2.08;;
48550;SDS011;34397;51.176;6.738;2022-08-04T10:21:41;6.38;;;2.40;;
48550;SDS011;34397;51.176;6.738;2022-08-04T10:24:41;8.95;;;2.35;;
48550;SDS011;34397;51.176;6.738;2022-08-04T10:27:27;3.88;;;2.17;;
48550;SDS011;34397;51.176;6.738;2022-08-04T10:30:11;7.70;;;3.30;;
48550;SDS011;34397;51.176;6.738;2022-08-04T10:32:52;8.02;;;5.32;;
48550;SDS011;34397;51.176;6.738;2022-08-04T10:35:31;6.50;;;3.10;;
48550;SDS011;34397;51.176;6.738;2022-08-04T10:38:10;7.05;;;2.45;;
48550;SDS011;34397;51.176;6.738;2022-08-04T10:41:08;5.05;;;2.50;;
48550;SDS011;34397;51.176;6.738;2022-08-04T10:43:45;4.30;;;1.92;;
48550;SDS011;34397;51.176;6.738;2022-08-04T10:46:25;5.28;;;1.90;;
48550;SDS011;34397;51.176;6.738;2022-08-04T10:49:06;3.45;;;2.00;;
48550;SDS011;34397;51.176;6.738;2022-08-04T10:51:43;8.95;;;3.50;;
48550;SDS011;34397;51.176;6.738;2022-08-04T10:54:23;5.40;;;1.90;;
48550;SDS011;34397;51.176;6.738;2022-08-04T10:57:00;9.15;;;6.85;;
48550;SDS011;34397;51.176;6.738;2022-08-04T10:59:38;6.40;;;3.28;;
48550;SDS011;34397;51.176;6.738;2022-08-04T11:02:19;10.98;;;4.90;;
48550;SDS011;34397;51.176;6.738;2022-08-04T11:05:08;4.82;;;2.30;;
48550;SDS011;34397;51.176;6.738;2022-08-04T11:07:49;5.38;;;2.38;;
48550;SDS011;34397;51.176;6.738;2022-08-04T11:10:29;6.45;;;2.25;;
48550;SDS011;34397;51.176;6.738;2022-08-04T11:13:10;5.97;;;2.35;;
48550;SDS011;34397;51.176;6.738;2022-08-04T11:15:47;3.83;;;2.13;;
48550;SDS011;34397;51.176;6.738;2022-08-04T11:18:25;6.53;;;2.55;;
48550;SDS011;34397;51.176;6.738;2022-08-04T11:21:09;3.85;;;2.00;;
48550;SDS011;34397;51.176;6.738;2022-08-04T11:23:47;6.60;;;2.13;;
48550;SDS011;34397;51.176;6.738;2022-08-04T11:26:28;7.38;;;2.40;;
48550;SDS011;34397;51.176;6.738;2022-08-04T11:29:11;7.38;;;2.33;;
48550;SDS011;34397;51.176;6.738;2022-08-04T11:31:53;5.85;;;2.60;;
48550;SDS011;34397;51.176;6.738;2022-08-04T11:34:30;6.47;;;2.78;;
48550;SDS011;34397;51.176;6.738;2022-08-04T11:37:08;7.47;;;2.58;;
48550;SDS011;34397;51.176;6.738;2022-08-04T11:39:48;8.88;;;2.50;;
48550;SDS011;34397;51.176;6.738;2022-08-04T11:42:25;4.68;;;2.40;;
48550;SDS011;34397;51.176;6.738;2022-08-04T11:44:59;4.68;;;1.98;;
48550;SDS011;34397;51.176;6.738;2022-08-04T11:47:35;6.50;;;2.38;;
48550;SDS011;34397;51.176;6.738;2022-08-04T11:50:20;6.55;;;2.22;;
48550;SDS011;34397;51.176;6.738;2022-08-04T11:53:00;5.03;;;2.00;;
48550;SDS011;34397;51.176;6.738;2022-08-04T11:55:34;7.22;;;2.67;;
48550;SDS011;34397;51.176;6.738;2022-08-04T11:58:07;5.68;;;2.00;;
48550;SDS011;34397;51.176;6.738;2022-08-04T12:00:41;7.13;;;2.20;;
48550;SDS011;34397;51.176;6.738;2022-08-04T12:03:26;4.80;;;1.90;;
48550;SDS011;34397;51.176;6.738;2022-08-04T12:06:08;7.25;;;2.20;;
48550;SDS011;34397;51.176;6.738;2022-08-04T12:11:48;5.70;;;2.25;;
48550;SDS011;34397;51.176;6.738;2022-08-04T12:14:30;6.47;;;2.70;;
48550;SDS011;34397;51.176;6.738;2022-08-04T12:17:15;4.63;;;2.20;;
48550;SDS011;34397;51.176;6.738;2022-08-04T12:19:56;10.05;;;2.80;;
48550;SDS011;34397;51.176;6.738;2022-08-04T12:22:34;9.00;;;2.15;;
48550;SDS011;34397;51.176;6.738;2022-08-04T12:25:14;4.50;;;2.10;;
48550;SDS011;34397;51.176;6.738;2022-08-04T12:27:52;6.43;;;2.05;;
48550;SDS011;34397;51.176;6.738;2022-08-04T12:30:28;4.25;;;2.10;;
48550;SDS011;34397;51.176;6.738;2022-08-04T12:33:06;3.78;;;2.45;;
48550;SDS011;34397;51.176;6.738;2022-08-04T12:35:46;4.95;;;2.55;;
48550;SDS011;34397;51.176;6.738;2022-08-04T12:38:25;10.73;;;3.15;;
48550;SDS011;34397;51.176;6.738;2022-08-04T12:41:03;5.05;;;2.55;;
48550;SDS011;34397;51.176;6.738;2022-08-04T12:43:36;6.22;;;2.58;;
48550;SDS011;34397;51.176;6.738;2022-08-04T12:46:17;8.82;;;2.70;;
48550;SDS011;34397;51.176;6.738;2022-08-04T12:48:52;6.37;;;2.57;;
48550;SDS011;34397;51.176;6.738;2022-08-04T12:51:35;4.88;;;2.40;;
48550;SDS011;34397;51.176;6.738;2022-08-04T12:54:10;6.22;;;2.28;;
48550;SDS011;34397;51.176;6.738;2022-08-04T12:56:43;5.00;;;2.38;;
48550;SDS011;34397;51.176;6.738;2022-08-04T12:59:17;7.13;;;2.40;;
48550;SDS011;34397;51.176;6.738;2022-08-04T13:01:49;6.35;;;2.33;;
48550;SDS011;34397;51.176;6.738;2022-08-04T13:04:22;7.10;;;2.80;;
48550;SDS011;34397;51.176;6.738;2022-08-04T13:07:04;7.13;;;2.65;;
48550;SDS011;34397;51.176;6.738;2022-08-04T13:09:42;10.85;;;2.80;;
48550;SDS011;34397;51.176;6.738;2022-08-04T13:12:20;6.45;;;2.60;;
48550;SDS011;34397;51.176;6.738;2022-08-04T13:14:57;6.60;;;2.72;;
48550;SDS011;34397;51.176;6.738;2022-08-04T13:17:50;6.05;;;2.50;;
48550;SDS011;34397;51.176;6.738;2022-08-04T13:20:26;7.10;;;2.92;;
48550;SDS011;34397;51.176;6.738;2022-08-04T13:23:04;7.13;;;2.92;;
48550;SDS011;34397;51.176;6.738;2022-08-04T13:25:39;5.68;;;2.30;;
48550;SDS011;34397;51.176;6.738;2022-08-04T13:28:18;4.90;;;2.28;;
48550;SDS011;34397;51.176;6.738;2022-08-04T13:30:53;8.00;;;2.60;;
48550;SDS011;34397;51.176;6.738;2022-08-04T13:33:28;10.77;;;3.05;;
48550;SDS011;34397;51.176;6.738;2022-08-04T13:36:03;4.93;;;2.60;;
48550;SDS011;34397;51.176;6.738;2022-08-04T13:38:38;6.97;;;2.30;;
48550;SDS011;34397;51.176;6.738;2022-08-04T13:41:18;5.65;;;2.33;;
48550;SDS011;34397;51.176;6.738;2022-08-04T13:43:54;4.40;;;2.22;;
48550;SDS011;34397;51.176;6.738;2022-08-04T13:46:30;6.45;;;2.58;;
48550;SDS011;34397;51.176;6.738;2022-08-04T13:49:06;4.72;;;2.13;;
48550;SDS011;34397;51.176;6.738;2022-08-04T13:51:41;6.07;;;2.28;;
48550;SDS011;34397;51.176;6.738;2022-08-04T13:54:19;4.97;;;2.55;;
48550;SDS011;34397;51.176;6.738;2022-08-04T13:56:52;6.35;;;2.45;;
48550;SDS011;34397;51.176;6.738;2022-08-04T13:59:32;4.50;;;2.33;;
48550;SDS011;34397;51.176;6.738;2022-08-04T14:02:08;9.00;;;3.15;;
48550;SDS011;34397;51.176;6.738;2022-08-04T14:05:00;7.32;;;2.70;;
48550;SDS011;34397;51.176;6.738;2022-08-04T14:07:40;4.63;;;2.05;;
48550;SDS011;34397;51.176;6.738;2022-08-04T14:10:16;5.95;;;2.60;;
48550;SDS011;34397;51.176;6.738;2022-08-04T14:12:49;5.05;;;2.30;;
48550;SDS011;34397;51.176;6.738;2022-08-04T14:15:30;6.25;;;2.55;;
48550;SDS011;34397;51.176;6.738;2022-08-04T14:18:15;7.13;;;2.85;;
48550;SDS011;34397;51.176;6.738;2022-08-04T14:21:03;5.32;;;2.33;;
48550;SDS011;34397;51.176;6.738;2022-08-04T14:23:42;4.55;;;2.33;;
48550;SDS011;34397;51.176;6.738;2022-08-04T14:26:21;8.18;;;2.53;;
48550;SDS011;34397;51.176;6.738;2022-08-04T14:29:05;5.75;;;2.35;;
48550;SDS011;34397;51.176;6.738;2022-08-04T14:31:41;4.75;;;2.38;;
48550;SDS011;34397;51.176;6.738;2022-08-04T14:34:23;6.10;;;2.50;;
48550;SDS011;34397;51.176;6.738;2022-08-04T14:37:05;4.13;;;2.30;;
48550;SDS011;34397;51.176;6.738;2022-08-04T14:39:38;5.93;;;2.38;;
48550;SDS011;34397;51.176;6.738;2022-08-04T14:42:12;6.55;;;2.83;;
48550;SDS011;34397;51.176;6.738;2022-08-04T14:44:51;6.18;;;2.75;;
48550;SDS011;34397;51.176;6.738;2022-08-04T14:47:38;6.68;;;2.58;;
48550;SDS011;34397;51.176;6.738;2022-08-04T14:50:13;7.15;;;3.00;;
48550;SDS011;34397;51.176;6.738;2022-08-04T14:52:45;6.35;;;2.60;;
48550;SDS011;34397;51.176;6.738;2022-08-04T14:55:17;6.13;;;2.65;;
48550;SDS011;34397;51.176;6.738;2022-08-04T14:57:52;7.40;;;2.65;;
48550;SDS011;34397;51.176;6.738;2022-08-04T15:00:25;6.28;;;3.00;;
48550;SDS011;34397;51.176;6.738;2022-08-04T15:03:01;5.07;;;2.72;;
48550;SDS011;34397;51.176;6.738;2022-08-04T15:05:38;4.60;;;2.55;;
48550;SDS011;34397;51.176;6.738;2022-08-04T15:08:12;6.80;;;2.70;;
48550;SDS011;34397;51.176;6.738;2022-08-04T15:10:45;5.82;;;2.72;;
48550;SDS011;34397;51.176;6.738;2022-08-04T15:13:17;5.88;;;2.63;;
48550;SDS011;34397;51.176;6.738;2022-08-04T15:15:49;5.60;;;2.58;;
48550;SDS011;34397;51.176;6.738;2022-08-04T15:18:23;9.02;;;2.67;;
48550;SDS011;34397;51.176;6.738;2022-08-04T15:20:59;4.50;;;2.47;;
48550;SDS011;34397;51.176;6.738;2022-08-04T15:23:33;6.45;;;2.58;;
48550;SDS011;34397;51.176;6.738;2022-08-04T15:26:09;5.95;;;2.58;;
48550;SDS011;34397;51.176;6.738;2022-08-04T15:28:46;8.57;;;3.10;;
48550;SDS011;34397;51.176;6.738;2022-08-04T15:31:22;7.65;;;3.00;;
48550;SDS011;34397;51.176;6.738;2022-08-04T15:33:57;9.85;;;2.90;;
48550;SDS011;34397;51.176;6.738;2022-08-04T15:36:31;9.88;;;2.95;;
48550;SDS011;34397;51.176;6.738;2022-08-04T15:39:11;6.68;;;3.17;;
48550;SDS011;34397;51.176;6.738;2022-08-04T15:41:55;5.22;;;2.67;;
48550;SDS011;34397;51.176;6.738;2022-08-04T15:44:57;5.38;;;2.83;;
48550;SDS011;34397;51.176;6.738;2022-08-04T15:51:00;6.05;;;2.90;;
48550;SDS011;34397;51.176;6.738;2022-08-04T15:56:52;4.90;;;2.78;;
48550;SDS011;34397;51.176;6.738;2022-08-04T16:02:37;7.38;;;2.83;;
48550;SDS011;34397;51.176;6.738;2022-08-04T16:05:31;7.32;;;2.92;;
48550;SDS011;34397;51.176;6.738;2022-08-04T16:08:13;6.28;;;2.78;;
48550;SDS011;34397;51.176;6.738;2022-08-04T16:10:47;7.25;;;2.70;;
48550;SDS011;34397;51.176;6.738;2022-08-04T16:13:21;6.80;;;2.90;;
48550;SDS011;34397;51.176;6.738;2022-08-04T16:15:54;6.30;;;2.70;;
48550;SDS011;34397;51.176;6.738;2022-08-04T16:18:39;5.30;;;2.78;;
48550;SDS011;34397;51.176;6.738;2022-08-04T16:21:17;4.35;;;2.30;;
48550;SDS011;34397;51.176;6.738;2022-08-04T16:23:55;7.10;;;3.00;;
48550;SDS011;34397;51.176;6.738;2022-08-04T16:26:44;9.15;;;3.33;;
48550;SDS011;34397;51.176;6.738;2022-08-04T16:29:28;6.30;;;3.50;;
48550;SDS011;34397;51.176;6.738;2022-08-04T16:32:10;7.28;;;3.45;;
48550;SDS011;34397;51.176;6.738;2022-08-04T16:34:54;5.65;;;2.58;;
48550;SDS011;34397;51.176;6.738;2022-08-04T16:37:31;8.63;;;3.65;;
48550;SDS011;34397;51.176;6.738;2022-08-04T16:43:07;5.90;;;2.88;;
48550;SDS011;34397;51.176;6.738;2022-08-04T16:45:41;6.25;;;2.83;;
48550;SDS011;34397;51.176;6.738;2022-08-04T16:48:16;6.28;;;2.63;;
48550;SDS011;34397;51.176;6.738;2022-08-04T16:50:51;6.57;;;2.80;;
48550;SDS011;34397;51.176;6.738;2022-08-04T16:53:31;6.38;;;2.75;;
48550;SDS011;34397;51.176;6.738;2022-08-04T16:56:07;5.40;;;2.80;;
48550;SDS011;34397;51.176;6.738;2022-08-04T16:58:40;7.45;;;3.22;;
48550;SDS011;34397;51.176;6.738;2022-08-04T17:01:14;5.40;;;2.40;;
48550;SDS011;34397;51.176;6.738;2022-08-04T17:03:49;7.05;;;2.85;;